createdAt,value
2022-10-03T00:00:46.876Z,34.50
2022-10-03T00:01:47.083Z,40.10
2022-10-03T00:02:47.333Z,33.30
2022-10-03T00:03:47.437Z,32.90
2022-10-03T00:04:47.635Z,34.40
2022-10-03T00:05:47.822Z,37.20
2022-10-03T00:06:48.020Z,36.60
2022-10-03T00:07:48.224Z,35.80
2022-10-03T00:08:48.407Z,36.20
2022-10-03T00:09:48.607Z,35.10
2022-10-03T00:10:55.816Z,33.70
2022-10-03T00:11:48.990Z,40.80
2022-10-03T00:12:49.206Z,33.80
2022-10-03T00:13:49.418Z,32.50
2022-10-03T00:14:49.619Z,35.50
2022-10-03T00:15:49.904Z,44.80
2022-10-03T00:16:50.004Z,45.70
2022-10-03T00:17:50.195Z,39.70
2022-10-03T00:18:50.390Z,36.30
2022-10-03T00:19:50.587Z,36.10
2022-10-03T00:20:50.776Z,43.30
2022-10-03T00:21:50.973Z,47.70
2022-10-03T00:22:51.174Z,38.80
2022-10-03T00:23:51.367Z,32.30
2022-10-03T00:24:51.555Z,45.40
2022-10-03T00:25:51.750Z,42.20
2022-10-03T00:26:51.935Z,44.10
2022-10-03T00:27:52.189Z,45.10
2022-10-03T00:28:52.469Z,41.50
2022-10-03T00:29:52.556Z,33.50
2022-10-03T00:30:52.863Z,36.40
2022-10-03T00:31:53.006Z,37.40
2022-10-03T00:32:53.170Z,32.90
2022-10-03T00:33:53.422Z,37.80
2022-10-03T00:34:53.493Z,35.30
2022-10-03T00:35:53.685Z,32.70
2022-10-03T00:36:53.870Z,39.40
2022-10-03T00:37:54.067Z,36.00
2022-10-03T00:38:54.264Z,31.30
2022-10-03T00:39:54.463Z,34.80
2022-10-03T00:40:54.663Z,40.50
2022-10-03T00:41:54.866Z,35.70
2022-10-03T00:42:55.080Z,35.10
2022-10-03T00:43:55.275Z,34.30
2022-10-03T00:44:55.466Z,36.80
2022-10-03T00:45:55.772Z,42.80
2022-10-03T00:46:55.927Z,37.40
2022-10-03T00:47:56.031Z,34.00
2022-10-03T00:48:56.234Z,41.50
2022-10-03T00:49:56.440Z,34.70
2022-10-03T00:50:56.643Z,35.60
2022-10-03T00:51:56.883Z,33.80
2022-10-03T00:52:57.073Z,31.50
2022-10-03T00:53:57.248Z,39.40
2022-10-03T00:54:57.438Z,36.50
2022-10-03T00:55:57.634Z,36.50
2022-10-03T00:56:57.869Z,31.20
2022-10-03T00:57:58.058Z,34.30
2022-10-03T00:58:58.389Z,35.90
2022-10-03T00:59:58.456Z,37.60
2022-10-03T01:00:58.664Z,36.40
2022-10-03T01:01:58.901Z,40.00
2022-10-03T01:02:59.069Z,32.60
2022-10-03T01:03:59.471Z,34.30
2022-10-03T01:04:59.465Z,33.00
2022-10-03T01:05:59.757Z,33.90
2022-10-03T01:06:59.719Z,30.40
2022-10-03T01:07:59.907Z,28.80
2022-10-03T01:09:00.099Z,35.30
2022-10-03T01:10:00.290Z,35.80
2022-10-03T01:11:00.466Z,34.40
2022-10-03T01:12:00.700Z,33.50
2022-10-03T01:13:00.901Z,32.50
2022-10-03T01:14:01.084Z,28.70
2022-10-03T01:15:01.277Z,36.50
2022-10-03T01:16:01.490Z,33.90
2022-10-03T01:17:01.605Z,34.70
2022-10-03T01:18:01.793Z,38.80
2022-10-03T01:19:01.975Z,30.20
2022-10-03T01:20:02.162Z,32.30
2022-10-03T01:21:02.343Z,32.60
2022-10-03T01:22:02.555Z,33.10
2022-10-03T01:23:02.740Z,34.60
2022-10-03T01:24:02.957Z,33.60
2022-10-03T01:25:03.139Z,30.10
2022-10-03T01:26:03.328Z,37.00
2022-10-03T01:27:03.703Z,34.40
2022-10-03T01:28:03.788Z,37.40
2022-10-03T01:29:03.963Z,34.10
2022-10-03T01:30:04.061Z,35.00
2022-10-03T01:31:04.275Z,31.80
2022-10-03T01:32:04.476Z,32.10
2022-10-03T01:33:04.673Z,31.70
2022-10-03T01:34:04.893Z,34.90
2022-10-03T01:35:05.081Z,34.30
2022-10-03T01:36:05.271Z,35.80
2022-10-03T01:37:05.460Z,35.50
2022-10-03T01:38:05.661Z,31.40
2022-10-03T01:39:05.860Z,35.70
2022-10-03T01:40:06.048Z,30.30
2022-10-03T01:41:06.249Z,30.40
2022-10-03T01:42:06.473Z,32.50
2022-10-03T01:43:06.694Z,40.80
2022-10-03T01:44:06.889Z,31.80
2022-10-03T01:45:07.088Z,27.60
2022-10-03T01:46:07.360Z,31.00
2022-10-03T01:47:07.468Z,33.00
2022-10-03T01:48:07.681Z,29.80
2022-10-03T01:49:07.859Z,29.80
2022-10-03T01:50:08.058Z,22.80
2022-10-03T01:51:08.246Z,32.20
2022-10-03T01:52:08.486Z,37.30
2022-10-03T01:53:08.696Z,30.30
2022-10-03T01:54:08.875Z,27.10
2022-10-03T01:55:09.116Z,32.40
2022-10-03T01:56:09.308Z,27.50
2022-10-03T01:57:09.506Z,31.60
2022-10-03T01:58:09.714Z,30.80
2022-10-03T01:59:09.941Z,25.40
2022-10-03T02:00:10.142Z,29.10
2022-10-03T02:01:10.372Z,29.80
2022-10-03T02:02:10.595Z,34.50
2022-10-03T02:03:10.777Z,26.70
2022-10-03T02:04:10.952Z,30.30
2022-10-03T02:05:11.146Z,31.10
2022-10-03T02:06:11.345Z,27.60
2022-10-03T02:07:11.537Z,30.70
2022-10-03T02:08:11.742Z,25.70
2022-10-03T02:09:11.933Z,30.40
2022-10-03T02:10:12.113Z,27.40
2022-10-03T02:11:12.324Z,37.00
2022-10-03T02:12:12.503Z,28.80
2022-10-03T02:13:12.702Z,24.60
2022-10-03T02:14:12.888Z,28.80
2022-10-03T02:15:20.058Z,27.60
2022-10-03T02:16:13.309Z,30.60
2022-10-03T02:17:13.371Z,29.20
2022-10-03T02:18:13.570Z,27.30
2022-10-03T02:19:13.746Z,29.50
2022-10-03T02:20:13.963Z,33.60
2022-10-03T02:21:14.119Z,30.90
2022-10-03T02:22:14.303Z,27.80
2022-10-03T02:23:14.517Z,30.60
2022-10-03T02:24:14.704Z,25.40
2022-10-03T02:25:14.884Z,28.90
2022-10-03T02:26:15.075Z,27.60
2022-10-03T02:27:15.260Z,29.50
2022-10-03T02:28:15.499Z,33.90
2022-10-03T02:29:15.682Z,25.30
2022-10-03T02:30:15.864Z,31.70
2022-10-03T02:31:16.087Z,29.60
2022-10-03T02:32:16.277Z,24.30
2022-10-03T02:33:16.480Z,35.30
2022-10-03T02:34:16.669Z,34.00
2022-10-03T02:35:16.858Z,29.30
2022-10-03T02:36:17.040Z,27.30
2022-10-03T02:37:17.230Z,27.90
2022-10-03T02:38:17.430Z,31.20
2022-10-03T02:39:17.610Z,28.30
2022-10-03T02:40:17.782Z,24.30
2022-10-03T02:41:17.974Z,32.60
2022-10-03T02:42:18.174Z,30.40
2022-10-03T02:43:18.382Z,33.10
2022-10-03T02:44:18.565Z,27.80
2022-10-03T02:45:18.821Z,25.70
2022-10-03T02:46:18.883Z,28.10
2022-10-03T02:47:19.065Z,29.40
2022-10-03T02:48:31.359Z,28.60
2022-10-03T02:49:20.432Z,27.00
2022-10-03T02:50:19.624Z,31.40
2022-10-03T02:51:19.816Z,27.20
2022-10-03T02:52:19.997Z,26.00
2022-10-03T02:53:20.204Z,28.60
2022-10-03T02:54:20.385Z,23.80
2022-10-03T02:55:20.559Z,28.10
2022-10-03T02:56:20.741Z,28.00
2022-10-03T02:57:20.916Z,25.30
2022-10-03T02:58:21.110Z,26.00
2022-10-03T02:59:21.295Z,30.70
2022-10-03T03:00:21.465Z,29.90
2022-10-03T03:01:21.739Z,26.20
2022-10-03T03:02:21.866Z,27.90
2022-10-03T03:03:22.042Z,29.60
2022-10-03T03:04:22.227Z,29.00
2022-10-03T03:05:22.421Z,23.70
2022-10-03T03:06:22.611Z,29.30
2022-10-03T03:07:22.812Z,28.80
2022-10-03T03:08:22.997Z,27.80
2022-10-03T03:09:23.181Z,30.30
2022-10-03T03:10:23.353Z,31.10
2022-10-03T03:11:23.537Z,27.60
2022-10-03T03:12:23.713Z,32.30
2022-10-03T03:13:23.923Z,30.30
2022-10-03T03:14:24.100Z,33.00
2022-10-03T03:15:24.272Z,27.00
2022-10-03T03:16:24.481Z,24.10
2022-10-03T03:17:24.680Z,29.80
2022-10-03T03:18:24.856Z,23.90
2022-10-03T03:19:25.051Z,30.00
2022-10-03T03:20:25.228Z,28.80
2022-10-03T03:21:25.421Z,26.40
2022-10-03T03:22:25.599Z,25.90
2022-10-03T03:23:25.796Z,20.00
2022-10-03T03:24:25.977Z,29.50
2022-10-03T03:25:26.155Z,27.20
2022-10-03T03:26:26.339Z,26.20
2022-10-03T03:27:26.517Z,25.40
2022-10-03T03:28:26.738Z,25.90
2022-10-03T03:29:26.915Z,33.10
2022-10-03T03:30:27.094Z,24.50
2022-10-03T03:31:27.317Z,30.00
2022-10-03T03:32:27.398Z,27.60
2022-10-03T03:33:27.639Z,30.30
2022-10-03T03:34:27.818Z,26.90
2022-10-03T03:35:28.004Z,25.80
2022-10-03T03:36:28.178Z,28.90
2022-10-03T03:37:28.358Z,32.50
2022-10-03T03:38:28.558Z,28.80
2022-10-03T03:39:28.745Z,27.60
2022-10-03T03:40:28.921Z,29.30
2022-10-03T03:41:29.101Z,29.00
2022-10-03T03:42:29.280Z,24.30
2022-10-03T03:43:29.486Z,31.90
2022-10-03T03:44:29.667Z,25.60
2022-10-03T03:45:30.004Z,31.80
2022-10-03T03:46:30.020Z,28.00
2022-10-03T03:47:30.206Z,30.30
2022-10-03T03:48:30.431Z,29.90
2022-10-03T03:49:30.618Z,28.40
2022-10-03T03:50:30.806Z,23.60
2022-10-03T03:51:30.993Z,29.30
2022-10-03T03:52:31.183Z,24.60
2022-10-03T03:53:31.386Z,28.70
2022-10-03T03:54:31.597Z,33.10
2022-10-03T03:55:31.775Z,33.90
2022-10-03T03:56:31.960Z,27.40
2022-10-03T03:57:32.142Z,31.50
2022-10-03T03:58:32.342Z,32.00
2022-10-03T03:59:32.523Z,28.70
2022-10-03T04:00:32.718Z,31.80
2022-10-03T04:01:32.966Z,30.70
2022-10-03T04:02:33.094Z,29.20
2022-10-03T04:03:33.286Z,26.10
2022-10-03T04:04:33.493Z,30.00
2022-10-03T04:05:33.696Z,23.00
2022-10-03T04:06:33.881Z,24.40
2022-10-03T04:07:34.070Z,27.50
2022-10-03T04:08:34.260Z,24.40
2022-10-03T04:09:34.440Z,30.00
2022-10-03T04:10:34.618Z,31.90
2022-10-03T04:11:34.799Z,27.40
2022-10-03T04:12:34.971Z,25.30
2022-10-03T04:13:35.180Z,30.80
2022-10-03T04:14:35.359Z,28.70
2022-10-03T04:15:35.551Z,32.80
2022-10-03T04:16:35.788Z,32.50
2022-10-03T04:17:35.909Z,23.70
2022-10-03T04:18:36.100Z,32.40
2022-10-03T04:19:36.275Z,29.10
2022-10-03T04:20:36.456Z,24.00
2022-10-03T04:21:36.964Z,30.90
2022-10-03T04:22:36.819Z,32.70
2022-10-03T04:23:37.024Z,22.90
2022-10-03T04:24:37.207Z,26.00
2022-10-03T04:25:37.390Z,29.00
2022-10-03T04:26:37.576Z,32.10
2022-10-03T04:27:37.760Z,29.60
2022-10-03T04:28:38.002Z,25.40
2022-10-03T04:29:38.187Z,27.80
2022-10-03T04:30:38.371Z,26.20
2022-10-03T04:31:38.828Z,25.60
2022-10-03T04:32:38.691Z,26.40
2022-10-03T04:33:38.886Z,24.90
2022-10-03T04:34:39.060Z,32.90
2022-10-03T04:35:39.264Z,29.90
2022-10-03T04:36:39.426Z,27.80
2022-10-03T04:37:39.566Z,27.30
2022-10-03T04:38:39.755Z,28.20
2022-10-03T04:39:39.954Z,27.60
2022-10-03T04:40:40.094Z,27.20
2022-10-03T04:41:43.031Z,27.10
2022-10-03T04:42:40.373Z,27.70
2022-10-03T04:43:40.528Z,26.40
2022-10-03T04:44:40.682Z,28.60
2022-10-03T04:45:40.932Z,29.50
2022-10-03T04:46:41.070Z,23.60
2022-10-03T04:47:41.214Z,25.60
2022-10-03T04:48:41.414Z,32.80
2022-10-03T04:49:41.579Z,22.70
2022-10-03T04:50:41.738Z,26.50
2022-10-03T04:51:42.000Z,28.30
2022-10-03T04:52:42.129Z,28.40
2022-10-03T04:53:42.313Z,24.50
2022-10-03T04:54:42.482Z,27.10
2022-10-03T04:55:42.621Z,26.50
2022-10-03T04:56:42.802Z,27.70
2022-10-03T04:57:42.983Z,31.60
2022-10-03T04:58:43.186Z,25.40
2022-10-03T04:59:43.369Z,25.20
2022-10-03T05:00:43.581Z,27.60
2022-10-03T05:01:43.751Z,22.50
2022-10-03T05:02:43.918Z,23.90
2022-10-03T05:03:44.121Z,35.60
2022-10-03T05:04:44.295Z,28.30
2022-10-03T05:05:44.473Z,29.90
2022-10-03T05:06:44.662Z,26.50
2022-10-03T05:07:44.867Z,30.70
2022-10-03T05:08:45.059Z,26.30
2022-10-03T05:09:45.239Z,24.70
2022-10-03T05:10:45.414Z,23.70
2022-10-03T05:11:45.595Z,20.30
2022-10-03T05:12:45.780Z,27.40
2022-10-03T05:13:45.970Z,28.40
2022-10-03T05:14:46.142Z,29.20
2022-10-03T05:15:46.322Z,24.30
2022-10-03T05:16:46.555Z,26.60
2022-10-03T05:17:46.672Z,32.90
2022-10-03T05:18:46.884Z,24.50
2022-10-03T05:19:47.092Z,27.30
2022-10-03T05:20:47.299Z,27.90
2022-10-03T05:21:47.556Z,29.80
2022-10-03T05:22:47.684Z,27.90
2022-10-03T05:23:47.898Z,33.20
2022-10-03T05:24:48.074Z,27.00
2022-10-03T05:25:48.256Z,28.10
2022-10-03T05:26:48.445Z,25.90
2022-10-03T05:27:48.676Z,26.20
2022-10-03T05:28:48.907Z,27.40
2022-10-03T05:29:48.974Z,31.30
2022-10-03T05:30:49.152Z,28.70
2022-10-03T05:31:49.390Z,31.50
2022-10-03T05:32:49.501Z,33.50
2022-10-03T05:33:49.734Z,23.90
2022-10-03T05:34:49.919Z,24.70
2022-10-03T05:35:50.129Z,25.70
2022-10-03T05:36:50.309Z,30.40
2022-10-03T05:37:50.498Z,28.20
2022-10-03T05:38:50.697Z,27.60
2022-10-03T05:39:50.874Z,23.40
2022-10-03T05:40:51.062Z,35.50
2022-10-03T05:42:05.111Z,22.90
2022-10-03T05:42:52.369Z,30.10
2022-10-03T05:43:51.583Z,26.20
2022-10-03T05:44:51.756Z,34.20
2022-10-03T05:45:51.966Z,27.20
2022-10-03T05:46:52.133Z,24.90
2022-10-03T05:47:52.328Z,24.30
2022-10-03T05:48:52.523Z,27.90
2022-10-03T05:49:52.712Z,26.60
2022-10-03T05:50:52.893Z,27.80
2022-10-03T05:51:53.071Z,28.30
2022-10-03T05:52:53.259Z,28.20
2022-10-03T05:53:53.449Z,25.90
2022-10-03T05:54:53.623Z,29.20
2022-10-03T05:55:53.816Z,32.80
2022-10-03T05:56:53.991Z,29.60
2022-10-03T05:57:54.174Z,24.50
2022-10-03T05:58:54.374Z,27.20
2022-10-03T05:59:54.560Z,27.80
2022-10-03T06:00:54.734Z,31.80
2022-10-03T06:01:54.974Z,26.80
2022-10-03T06:02:55.186Z,27.10
2022-10-03T06:03:55.251Z,29.00
2022-10-03T06:04:55.426Z,29.50
2022-10-03T06:05:55.613Z,27.20
2022-10-03T06:06:55.796Z,30.90
2022-10-03T06:07:55.969Z,33.70
2022-10-03T06:08:56.167Z,29.40
2022-10-03T06:09:56.346Z,28.50
2022-10-03T06:11:03.541Z,30.40
2022-10-03T06:11:59.386Z,32.80
2022-10-03T06:12:56.889Z,26.80
2022-10-03T06:13:57.086Z,27.40
2022-10-03T06:14:57.276Z,31.50
2022-10-03T06:15:57.484Z,23.50
2022-10-03T06:16:57.696Z,26.00
2022-10-03T06:17:57.884Z,30.30
2022-10-03T06:18:58.090Z,26.00
2022-10-03T06:19:58.276Z,22.90
2022-10-03T06:20:58.467Z,25.70
2022-10-03T06:21:58.663Z,28.30
2022-10-03T06:23:02.388Z,31.50
2022-10-03T06:24:00.004Z,24.10
2022-10-03T06:24:59.211Z,23.70
2022-10-03T06:25:59.404Z,30.30
2022-10-03T06:26:59.591Z,30.00
2022-10-03T06:27:59.799Z,28.50
2022-10-03T06:28:59.942Z,27.30
2022-10-03T06:30:00.150Z,29.00
2022-10-03T06:31:00.367Z,25.80
2022-10-03T06:32:00.456Z,28.60
2022-10-03T06:33:00.643Z,31.70
2022-10-03T06:34:00.820Z,30.40
2022-10-03T06:35:01.031Z,30.40
2022-10-03T06:36:01.217Z,26.20
2022-10-03T06:37:01.402Z,26.30
2022-10-03T06:38:01.582Z,28.80
2022-10-03T06:39:01.791Z,21.10
2022-10-03T06:40:04.214Z,31.00
2022-10-03T06:41:03.101Z,31.90
2022-10-03T06:42:02.272Z,27.10
2022-10-03T06:43:02.452Z,27.70
2022-10-03T06:44:02.655Z,25.60
2022-10-03T06:45:02.831Z,30.40
2022-10-03T06:46:03.052Z,27.40
2022-10-03T06:47:03.140Z,26.50
2022-10-03T06:48:03.337Z,26.40
2022-10-03T06:49:03.542Z,25.00
2022-10-03T06:50:03.732Z,26.00
2022-10-03T06:51:04.220Z,26.30
2022-10-03T06:52:04.061Z,28.70
2022-10-03T06:53:04.241Z,23.80
2022-10-03T06:54:04.442Z,26.50
2022-10-03T06:55:04.630Z,24.10
2022-10-03T06:56:04.809Z,22.20
2022-10-03T06:57:05.010Z,21.30
2022-10-03T06:58:05.194Z,24.40
2022-10-03T06:59:05.404Z,28.60
2022-10-03T07:00:05.586Z,21.00
2022-10-03T07:01:05.840Z,24.40
2022-10-03T07:02:05.934Z,24.30
2022-10-03T07:03:06.121Z,24.40
2022-10-03T07:04:06.309Z,30.10
2022-10-03T07:05:06.537Z,24.20
2022-10-03T07:06:06.698Z,21.20
2022-10-03T07:07:06.886Z,27.70
2022-10-03T07:08:07.096Z,27.30
2022-10-03T07:09:07.266Z,33.50
2022-10-03T07:10:07.431Z,26.50
2022-10-03T07:11:07.686Z,26.20
2022-10-03T07:12:12.152Z,24.60
2022-10-03T07:13:08.870Z,29.40
2022-10-03T07:14:08.071Z,26.20
2022-10-03T07:15:08.255Z,27.60
2022-10-03T07:16:25.955Z,31.80
2022-10-03T07:17:09.641Z,26.80
2022-10-03T07:18:08.731Z,23.40
2022-10-03T07:19:08.933Z,25.20
2022-10-03T07:20:09.095Z,30.90
2022-10-03T07:21:12.438Z,26.40
2022-10-03T07:22:10.389Z,22.10
2022-10-03T07:23:09.556Z,24.50
2022-10-03T07:24:09.787Z,24.70
2022-10-03T07:25:09.846Z,23.40
2022-10-03T07:26:10.063Z,23.90
2022-10-03T07:27:10.232Z,25.60
2022-10-03T07:28:10.450Z,22.70
2022-10-03T07:29:10.687Z,22.20
2022-10-03T07:30:10.755Z,23.80
2022-10-03T07:31:11.009Z,22.30
2022-10-03T07:32:11.039Z,22.50
2022-10-03T07:33:11.212Z,24.80
2022-10-03T07:34:11.454Z,25.00
2022-10-03T07:35:11.509Z,23.60
2022-10-03T07:36:11.681Z,27.80
2022-10-03T07:37:11.869Z,28.80
2022-10-03T07:38:12.052Z,26.10
2022-10-03T07:39:12.271Z,26.10
2022-10-03T07:40:12.334Z,26.90
2022-10-03T07:41:12.503Z,24.10
2022-10-03T07:42:12.683Z,27.40
2022-10-03T07:43:12.846Z,25.00
2022-10-03T07:44:13.031Z,28.50
2022-10-03T07:45:13.222Z,24.50
2022-10-03T07:46:13.620Z,21.60
2022-10-03T07:47:13.542Z,24.20
2022-10-03T07:48:13.711Z,24.30
2022-10-03T07:49:18.256Z,20.80
2022-10-03T07:50:14.071Z,22.10
2022-10-03T07:51:14.231Z,20.90
2022-10-03T07:52:14.420Z,22.40
2022-10-03T07:53:14.575Z,25.30
2022-10-03T07:54:14.760Z,27.60
2022-10-03T07:55:15.029Z,24.50
2022-10-03T07:56:15.083Z,22.80
2022-10-03T07:57:15.242Z,25.20
2022-10-03T07:58:15.434Z,27.70
2022-10-03T07:59:15.618Z,19.70
2022-10-03T08:00:15.814Z,25.90
2022-10-03T08:01:16.000Z,26.20
2022-10-03T08:02:16.239Z,24.40
2022-10-03T08:03:16.366Z,26.90
2022-10-03T08:04:16.440Z,27.80
2022-10-03T08:05:16.600Z,27.20
2022-10-03T08:06:16.780Z,24.50
2022-10-03T08:07:16.966Z,24.20
2022-10-03T08:08:17.149Z,26.50
2022-10-03T08:09:17.345Z,23.20
2022-10-03T08:10:17.435Z,23.70
2022-10-03T08:11:17.619Z,22.40
2022-10-03T08:12:17.808Z,29.90
2022-10-03T08:13:17.982Z,25.20
2022-10-03T08:14:18.179Z,20.90
2022-10-03T08:15:18.349Z,23.30
2022-10-03T08:16:18.598Z,28.50
2022-10-03T08:17:18.680Z,26.40
2022-10-03T08:18:18.846Z,27.50
2022-10-03T08:19:19.039Z,25.90
2022-10-03T08:20:19.218Z,22.60
2022-10-03T08:21:19.383Z,27.60
2022-10-03T08:22:19.569Z,28.60
2022-10-03T08:23:19.724Z,23.30
2022-10-03T08:24:19.904Z,20.90
2022-10-03T08:25:20.066Z,19.00
2022-10-03T08:26:20.230Z,25.10
2022-10-03T08:27:20.389Z,23.30
2022-10-03T08:28:20.632Z,27.60
2022-10-03T08:29:20.723Z,24.40
2022-10-03T08:30:20.922Z,25.10
2022-10-03T08:31:21.081Z,23.60
2022-10-03T08:32:21.180Z,24.70
2022-10-03T08:33:21.325Z,21.10
2022-10-03T08:34:21.506Z,23.90
2022-10-03T08:35:21.669Z,25.90
2022-10-03T08:36:21.826Z,25.00
2022-10-03T08:37:21.995Z,27.90
2022-10-03T08:38:24.988Z,31.60
2022-10-03T08:39:23.301Z,24.40
2022-10-03T08:40:22.331Z,31.60
2022-10-03T08:41:22.473Z,27.40
2022-10-03T08:42:22.615Z,25.20
2022-10-03T08:43:22.767Z,26.80
2022-10-03T08:44:25.953Z,26.40
2022-10-03T08:45:24.029Z,26.00
2022-10-03T08:46:23.237Z,27.70
2022-10-03T08:47:23.349Z,21.50
2022-10-03T08:48:23.513Z,23.60
2022-10-03T08:49:23.644Z,18.40
2022-10-03T08:50:23.812Z,22.50
2022-10-03T08:51:23.965Z,26.00
2022-10-03T08:52:24.110Z,25.40
2022-10-03T08:53:24.248Z,22.60
2022-10-03T08:54:24.388Z,26.40
2022-10-03T08:55:24.549Z,23.70
2022-10-03T08:56:24.683Z,33.40
2022-10-03T08:57:24.823Z,25.40
2022-10-03T08:58:24.955Z,24.00
2022-10-03T08:59:25.094Z,26.90
2022-10-03T09:00:25.244Z,27.70
2022-10-03T09:01:25.399Z,26.00
2022-10-03T09:02:25.650Z,21.80
2022-10-03T09:03:34.364Z,27.20
2022-10-03T09:04:26.729Z,21.60
2022-10-03T09:05:25.866Z,19.30
2022-10-03T09:06:25.993Z,21.50
2022-10-03T09:07:26.560Z,21.20
2022-10-03T09:08:26.295Z,20.70
2022-10-03T09:09:26.431Z,21.10
2022-10-03T09:10:26.613Z,25.40
2022-10-03T09:11:26.643Z,26.40
2022-10-03T09:12:26.774Z,23.30
2022-10-03T09:13:26.907Z,22.00
2022-10-03T09:14:27.063Z,26.40
2022-10-03T09:15:27.238Z,21.60
2022-10-03T09:16:27.425Z,26.10
2022-10-03T09:17:27.520Z,26.60
2022-10-03T09:18:27.662Z,26.50
2022-10-03T09:19:27.782Z,22.10
2022-10-03T09:20:27.939Z,24.00
2022-10-03T09:21:28.083Z,32.00
2022-10-03T09:22:28.236Z,27.60
2022-10-03T09:23:28.404Z,25.90
2022-10-03T09:24:28.532Z,21.20
2022-10-03T09:25:28.716Z,24.20
2022-10-03T09:26:28.857Z,24.80
2022-10-03T09:27:29.981Z,21.00
2022-10-03T09:28:29.183Z,19.80
2022-10-03T09:29:29.391Z,24.10
2022-10-03T09:30:29.491Z,18.60
2022-10-03T09:31:29.585Z,22.80
2022-10-03T09:32:29.711Z,22.20
2022-10-03T09:33:29.858Z,20.50
2022-10-03T09:34:30.030Z,24.90
2022-10-03T09:35:30.207Z,21.30
2022-10-03T09:36:30.231Z,25.30
2022-10-03T09:37:30.372Z,22.00
2022-10-03T09:38:30.526Z,22.70
2022-10-03T09:39:30.672Z,26.30
2022-10-03T09:40:30.831Z,26.80
2022-10-03T09:41:30.962Z,21.20
2022-10-03T09:42:31.112Z,19.90
2022-10-03T09:43:31.247Z,22.00
2022-10-03T09:44:31.371Z,21.80
2022-10-03T09:45:31.529Z,21.00
2022-10-03T09:46:31.821Z,21.70
2022-10-03T09:47:31.851Z,25.40
2022-10-03T09:48:31.978Z,19.30
2022-10-03T09:49:32.110Z,18.30
2022-10-03T09:50:32.266Z,19.90
2022-10-03T09:51:32.400Z,18.80
2022-10-03T09:52:32.537Z,18.70
2022-10-03T09:53:32.710Z,24.10
2022-10-03T09:54:32.830Z,20.90
2022-10-03T09:55:34.249Z,25.60
2022-10-03T09:56:33.127Z,18.50
2022-10-03T09:57:33.290Z,19.50
2022-10-03T09:58:33.430Z,21.10
2022-10-03T09:59:33.581Z,21.50
2022-10-03T10:00:33.781Z,21.80
2022-10-03T10:01:33.822Z,21.10
2022-10-03T10:02:33.932Z,16.50
2022-10-03T10:03:34.127Z,18.80
2022-10-03T10:04:53.499Z,22.20
2022-10-03T10:05:35.402Z,23.80
2022-10-03T10:06:34.415Z,21.40
2022-10-03T10:07:34.550Z,29.70
2022-10-03T10:08:34.692Z,26.90
2022-10-03T10:09:34.858Z,24.30
2022-10-03T10:10:35.008Z,23.50
2022-10-03T10:11:35.627Z,25.20
2022-10-03T10:12:35.614Z,19.40
2022-10-03T10:13:56.116Z,20.10
2022-10-03T10:14:36.606Z,16.30
2022-10-03T10:15:35.774Z,18.00
2022-10-03T10:16:35.987Z,21.50
2022-10-03T10:17:36.128Z,22.00
2022-10-03T10:18:36.293Z,20.50
2022-10-03T10:19:36.443Z,18.70
2022-10-03T10:20:36.594Z,20.90
2022-10-03T10:21:36.761Z,21.10
2022-10-03T10:22:36.947Z,21.60
2022-10-03T10:23:37.073Z,18.60
2022-10-03T10:24:37.223Z,23.40
2022-10-03T10:25:37.381Z,20.10
2022-10-03T10:26:37.539Z,19.80
2022-10-03T10:27:37.684Z,22.00
2022-10-03T10:28:38.007Z,20.50
2022-10-03T10:29:37.906Z,17.00
2022-10-03T10:30:38.049Z,16.70
2022-10-03T10:31:38.231Z,20.80
2022-10-03T10:32:38.257Z,15.70
2022-10-03T10:33:38.471Z,18.30
2022-10-03T10:34:38.452Z,19.80
2022-10-03T10:35:38.564Z,18.70
2022-10-03T10:36:38.995Z,13.90
2022-10-03T10:37:41.635Z,18.70
2022-10-03T10:38:39.756Z,16.10
2022-10-03T10:39:38.846Z,19.30
2022-10-03T10:40:38.995Z,19.60
2022-10-03T10:41:39.359Z,17.70
2022-10-03T10:42:39.227Z,18.40
2022-10-03T10:43:39.325Z,15.00
2022-10-03T10:44:39.412Z,17.50
2022-10-03T10:45:39.498Z,12.30
2022-10-03T10:46:40.079Z,16.80
2022-10-03T10:47:39.694Z,11.80
2022-10-03T10:48:39.768Z,12.10
2022-10-03T10:49:39.838Z,10.90
2022-10-03T10:50:39.893Z,13.20
2022-10-03T10:51:40.025Z,19.90
2022-10-03T10:52:40.000Z,17.30
2022-10-03T10:53:40.260Z,12.80
2022-10-03T10:54:40.130Z,14.40
2022-10-03T10:55:44.049Z,15.20
2022-10-03T10:56:41.705Z,17.00
2022-10-03T10:57:40.216Z,13.60
2022-10-03T10:58:40.287Z,16.30
2022-10-03T10:59:40.368Z,17.00
2022-10-03T11:00:40.460Z,18.40
2022-10-03T11:01:45.154Z,14.30
2022-10-03T11:02:41.611Z,15.20
2022-10-03T11:03:40.740Z,15.70
2022-10-03T11:04:40.784Z,14.20
2022-10-03T11:05:40.772Z,16.40
2022-10-03T11:06:41.430Z,17.60
2022-10-03T11:07:40.960Z,16.10
2022-10-03T11:08:41.054Z,15.30
2022-10-03T11:09:41.154Z,18.60
2022-10-03T11:10:41.285Z,17.80
2022-10-03T11:11:41.397Z,16.10
2022-10-03T11:12:41.510Z,16.10
2022-10-03T11:13:41.623Z,20.30
2022-10-03T11:14:41.751Z,15.00
2022-10-03T11:15:41.855Z,16.10
2022-10-03T11:16:42.419Z,15.60
2022-10-03T11:17:42.135Z,15.10
2022-10-03T11:18:42.155Z,16.80
2022-10-03T11:19:42.265Z,18.30
2022-10-03T11:20:42.383Z,13.60
2022-10-03T11:21:42.523Z,15.30
2022-10-03T11:22:42.659Z,14.60
2022-10-03T11:23:42.782Z,15.00
2022-10-03T11:24:42.911Z,16.70
2022-10-03T11:25:43.019Z,13.20
2022-10-03T11:26:43.434Z,15.90
2022-10-03T11:27:43.279Z,15.00
2022-10-03T11:28:43.512Z,19.30
2022-10-03T11:29:43.499Z,14.40
2022-10-03T11:30:43.633Z,15.20
2022-10-03T11:31:43.838Z,14.00
2022-10-03T11:32:43.868Z,12.80
2022-10-03T11:33:44.031Z,17.30
2022-10-03T11:34:44.182Z,15.10
2022-10-03T11:35:44.316Z,12.80
2022-10-03T11:36:44.664Z,14.60
2022-10-03T11:37:44.633Z,11.40
2022-10-03T11:38:44.789Z,12.30
2022-10-03T11:39:44.927Z,11.90
2022-10-03T11:40:45.072Z,9.80
2022-10-03T11:41:45.222Z,9.20
2022-10-03T11:42:45.378Z,12.50
2022-10-03T11:43:45.519Z,10.50
2022-10-03T11:44:45.673Z,11.30
2022-10-03T11:45:45.854Z,10.20
2022-10-03T11:46:45.999Z,13.70
2022-10-03T11:47:46.168Z,13.20
2022-10-03T11:48:46.333Z,13.50
2022-10-03T11:49:46.482Z,12.20
2022-10-03T11:50:46.630Z,12.40
2022-10-03T11:51:51.538Z,13.40
2022-10-03T11:52:47.895Z,11.80
2022-10-03T11:53:47.044Z,11.50
2022-10-03T11:54:47.498Z,12.90
2022-10-03T11:55:47.317Z,13.10
2022-10-03T11:56:47.474Z,11.10
2022-10-03T11:57:47.611Z,15.40
2022-10-03T11:58:47.757Z,12.50
2022-10-03T11:59:47.903Z,15.10
2022-10-03T12:00:48.047Z,17.80
2022-10-03T12:01:51.390Z,18.40
2022-10-03T12:02:48.385Z,21.30
2022-10-03T12:03:48.470Z,20.70
2022-10-03T12:04:48.616Z,18.30
2022-10-03T12:05:48.743Z,20.60
2022-10-03T12:06:48.881Z,20.90
2022-10-03T12:07:49.010Z,17.50
2022-10-03T12:08:49.187Z,17.50
2022-10-03T12:09:49.325Z,19.60
2022-10-03T12:10:56.566Z,18.60
2022-10-03T12:11:50.306Z,18.50
2022-10-03T12:12:49.663Z,21.30
2022-10-03T12:13:49.840Z,18.60
2022-10-03T12:14:50.001Z,20.00
2022-10-03T12:15:50.157Z,24.40
2022-10-03T12:16:50.352Z,21.90
2022-10-03T12:17:50.398Z,17.20
2022-10-03T12:18:50.572Z,19.10
2022-10-03T12:19:50.740Z,16.70
2022-10-03T12:20:50.881Z,21.00
2022-10-03T12:21:51.023Z,18.40
2022-10-03T12:22:51.162Z,18.80
2022-10-03T12:23:51.306Z,16.40
2022-10-03T12:24:51.442Z,18.90
2022-10-03T12:25:51.572Z,19.00
2022-10-03T12:26:52.264Z,17.90
2022-10-03T12:27:51.840Z,16.30
2022-10-03T12:28:52.073Z,13.60
2022-10-03T12:29:51.950Z,16.40
2022-10-03T12:30:52.045Z,15.50
2022-10-03T12:31:52.180Z,18.90
2022-10-03T12:32:52.243Z,13.90
2022-10-03T12:33:52.439Z,16.10
2022-10-03T12:34:52.431Z,17.70
2022-10-03T12:35:52.568Z,18.60
2022-10-03T12:36:52.725Z,13.40
2022-10-03T12:37:52.613Z,10.30
2022-10-03T12:38:52.744Z,12.20
2022-10-03T12:39:52.853Z,14.60
2022-10-03T12:40:52.953Z,14.10
2022-10-03T12:41:53.053Z,13.60
2022-10-03T12:42:53.233Z,11.90
2022-10-03T12:43:53.224Z,14.10
2022-10-03T12:44:53.355Z,13.50
2022-10-03T12:45:53.500Z,11.20
2022-10-03T12:46:53.523Z,13.20
2022-10-03T12:47:56.134Z,13.70
2022-10-03T12:48:53.763Z,12.70
2022-10-03T12:49:54.189Z,13.30
2022-10-03T12:50:53.924Z,13.20
2022-10-03T12:51:54.058Z,12.60
2022-10-03T12:52:54.168Z,14.50
2022-10-03T12:53:54.283Z,13.60
2022-10-03T12:54:54.403Z,13.40